RYR10XW LERS-EHEH
Flight info
| Callsign | RYR10XW |
|---|---|
| Flight time | 1h 45m |
| Altitude | 36000 |
| Route | ARBEK T113 RUTIP DCT OKABI DCT TOU DCT ADABI DCT BOKNO UN858 VANAD UN874 ARSAF DCT EGOZE DCT CMB DCT VEKIN DCT ADUTO N873 FERDI Y18 DENUT |
| Aircraft | B738/M-SDE2E3FGHIRWXY/LB1 |
Departure
| Time | 2026-05-09 12:53 |
|---|---|
| Airport | Reus Airport (LERS) |
Arrival
| Time | 2026-05-09 14:39 |
|---|---|
| Airport | Eindhoven Airport (EHEH) |
| Time | Latitude | Longitude | Altitude | Speed | Heading |
|---|---|---|---|---|---|
| 2026-05-09 12:27 | 41.14846 | 1.16184 | 243 ft | 0 kts | 339° |
| 2026-05-09 12:43 | 41.14845 | 1.16185 | 243 ft | 2 kts | 339° |
| 2026-05-09 12:44 | 41.14821 | 1.16197 | 243 ft | 4 kts | 339° |
| 2026-05-09 12:44 | 41.14800 | 1.16209 | 243 ft | 4 kts | 344° |
| 2026-05-09 12:44 | 41.14777 | 1.16208 | 243 ft | 4 kts | 36° |
| 2026-05-09 12:44 | 41.14760 | 1.16181 | 243 ft | 4 kts | 67° |
| 2026-05-09 12:45 | 41.14758 | 1.16175 | 243 ft | 0 kts | 69° |
| 2026-05-09 12:47 | 41.14760 | 1.16182 | 243 ft | 3 kts | 69° |
| 2026-05-09 12:48 | 41.14774 | 1.16231 | 243 ft | 9 kts | 69° |
| 2026-05-09 12:48 | 41.14800 | 1.16317 | 243 ft | 10 kts | 69° |
| 2026-05-09 12:48 | 41.14827 | 1.16409 | 243 ft | 12 kts | 69° |
| 2026-05-09 12:48 | 41.14860 | 1.16522 | 243 ft | 15 kts | 69° |
| 2026-05-09 12:49 | 41.14900 | 1.16659 | 243 ft | 17 kts | 69° |
| 2026-05-09 12:49 | 41.14946 | 1.16818 | 243 ft | 20 kts | 69° |
| 2026-05-09 12:49 | 41.14999 | 1.16997 | 243 ft | 21 kts | 69° |
| 2026-05-09 12:49 | 41.15051 | 1.17176 | 243 ft | 21 kts | 69° |
| 2026-05-09 12:50 | 41.15102 | 1.17350 | 243 ft | 20 kts | 69° |
| 2026-05-09 12:50 | 41.15152 | 1.17519 | 243 ft | 19 kts | 69° |
| 2026-05-09 12:50 | 41.15199 | 1.17682 | 243 ft | 19 kts | 69° |
| 2026-05-09 12:50 | 41.15245 | 1.17840 | 243 ft | 18 kts | 69° |
| 2026-05-09 12:51 | 41.15290 | 1.17992 | 243 ft | 17 kts | 69° |
| 2026-05-09 12:51 | 41.15333 | 1.18139 | 243 ft | 16 kts | 69° |
| 2026-05-09 12:51 | 41.15338 | 1.18223 | 243 ft | 9 kts | 118° |
| 2026-05-09 12:51 | 41.15287 | 1.18262 | 243 ft | 9 kts | 157° |
| 2026-05-09 12:52 | 41.15232 | 1.18290 | 243 ft | 8 kts | 162° |
| 2026-05-09 12:52 | 41.15199 | 1.18283 | 243 ft | 5 kts | 232° |
| 2026-05-09 12:52 | 41.15192 | 1.18265 | 243 ft | 0 kts | 246° |
| 2026-05-09 12:52 | 41.15191 | 1.18262 | 243 ft | 4 kts | 246° |
| 2026-05-09 12:53 | 41.15087 | 1.17907 | 243 ft | 82 kts | 249° |
| 2026-05-09 12:53 | 41.14789 | 1.16888 | 243 ft | 153 kts | 249° |
| 2026-05-09 12:53 | 41.14327 | 1.15381 | 530 ft | 186 kts | 245° |
| 2026-05-09 12:53 | 41.13773 | 1.13934 | 1582 ft | 170 kts | 221° |
| 2026-05-09 12:54 | 41.12763 | 1.13138 | 2359 ft | 174 kts | 209° |
| 2026-05-09 12:54 | 41.11991 | 1.11812 | 3102 ft | 181 kts | 243° |
| 2026-05-09 12:54 | 41.11500 | 1.10362 | 4099 ft | 173 kts | 243° |
| 2026-05-09 12:54 | 41.10968 | 1.08873 | 4731 ft | 185 kts | 241° |
| 2026-05-09 12:55 | 41.10365 | 1.07207 | 5082 ft | 217 kts | 243° |
| 2026-05-09 12:55 | 41.09664 | 1.05294 | 5298 ft | 244 kts | 242° |
| 2026-05-09 12:55 | 41.08895 | 1.03146 | 5516 ft | 271 kts | 244° |
| 2026-05-09 12:55 | 41.08044 | 1.00820 | 6045 ft | 287 kts | 242° |
| 2026-05-09 12:56 | 41.07130 | 0.98464 | 7018 ft | 287 kts | 242° |
| 2026-05-09 12:56 | 41.06206 | 0.96107 | 7945 ft | 290 kts | 241° |
| 2026-05-09 12:56 | 41.05255 | 0.93720 | 8777 ft | 296 kts | 242° |
| 2026-05-09 12:56 | 41.04314 | 0.91225 | 9601 ft | 303 kts | 249° |
| 2026-05-09 12:57 | 41.04001 | 0.88504 | 10487 ft | 302 kts | 274° |
| 2026-05-09 12:57 | 41.04224 | 0.86616 | 10785 ft | 315 kts | 287° |
| 2026-05-09 12:57 | 41.05261 | 0.83952 | 10988 ft | 338 kts | 311° |
| 2026-05-09 12:57 | 41.07150 | 0.81995 | 11209 ft | 357 kts | 337° |
| 2026-05-09 12:58 | 41.09579 | 0.81072 | 11462 ft | 373 kts | 353° |
| 2026-05-09 12:58 | 41.12199 | 0.80796 | 12009 ft | 381 kts | 359° |
| 2026-05-09 12:58 | 41.14908 | 0.80761 | 12670 ft | 387 kts | 4° |
| 2026-05-09 12:58 | 41.17576 | 0.80980 | 13385 ft | 390 kts | 9° |
| 2026-05-09 12:59 | 41.20280 | 0.81599 | 14112 ft | 391 kts | 15° |
| 2026-05-09 12:59 | 41.22876 | 0.82583 | 14683 ft | 396 kts | 21° |
| 2026-05-09 12:59 | 41.25506 | 0.83907 | 15259 ft | 401 kts | 25° |
| 2026-05-09 12:59 | 41.28007 | 0.85607 | 15831 ft | 405 kts | 33° |
| 2026-05-09 13:00 | 41.30343 | 0.87737 | 16401 ft | 409 kts | 39° |
| 2026-05-09 13:00 | 41.32545 | 0.90175 | 16957 ft | 413 kts | 45° |
| 2026-05-09 13:00 | 41.34565 | 0.92927 | 17486 ft | 417 kts | 51° |
| 2026-05-09 13:00 | 41.36369 | 0.95992 | 17846 ft | 426 kts | 57° |
| 2026-05-09 13:01 | 41.37936 | 0.99365 | 18336 ft | 429 kts | 64° |
| 2026-05-09 13:01 | 41.39211 | 1.02980 | 18843 ft | 431 kts | 71° |
| 2026-05-09 13:01 | 41.40175 | 1.06744 | 19386 ft | 431 kts | 77° |
| 2026-05-09 13:01 | 41.40845 | 1.10651 | 19917 ft | 433 kts | 81° |
| 2026-05-09 13:02 | 41.41848 | 1.14457 | 20371 ft | 445 kts | 62° |
| 2026-05-09 13:02 | 41.43947 | 1.17625 | 20826 ft | 459 kts | 39° |
| 2026-05-09 13:02 | 41.46822 | 1.19528 | 21250 ft | 470 kts | 16° |
| 2026-05-09 13:02 | 41.50094 | 1.20008 | 21665 ft | 476 kts | 354° |
| 2026-05-09 13:03 | 41.53312 | 1.19061 | 22100 ft | 477 kts | 339° |
| 2026-05-09 13:03 | 41.56259 | 1.17181 | 22460 ft | 476 kts | 323° |
| 2026-05-09 13:03 | 41.59194 | 1.14991 | 22974 ft | 482 kts | 337° |
| 2026-05-09 13:03 | 41.62448 | 1.14199 | 23647 ft | 483 kts | 0° |
| 2026-05-09 13:04 | 41.65755 | 1.14901 | 24120 ft | 483 kts | 16° |
| 2026-05-09 13:04 | 41.69019 | 1.16385 | 24194 ft | 494 kts | 21° |
| 2026-05-09 13:04 | 41.72258 | 1.18034 | 24396 ft | 501 kts | 21° |
| 2026-05-09 13:04 | 41.75553 | 1.19574 | 24770 ft | 503 kts | 18° |
| 2026-05-09 13:05 | 41.78896 | 1.20934 | 25279 ft | 501 kts | 15° |
| 2026-05-09 13:05 | 41.82258 | 1.22139 | 25809 ft | 499 kts | 14° |
| 2026-05-09 13:05 | 41.85641 | 1.23259 | 26068 ft | 504 kts | 13° |
| 2026-05-09 13:05 | 41.89076 | 1.24356 | 26284 ft | 509 kts | 13° |
| 2026-05-09 13:06 | 41.92535 | 1.25458 | 26567 ft | 512 kts | 13° |
| 2026-05-09 13:06 | 41.96001 | 1.26576 | 26892 ft | 514 kts | 13° |
| 2026-05-09 13:06 | 41.99480 | 1.27713 | 27226 ft | 515 kts | 13° |
| 2026-05-09 13:06 | 42.02976 | 1.28866 | 27519 ft | 517 kts | 13° |
| 2026-05-09 13:07 | 42.06484 | 1.30031 | 27848 ft | 519 kts | 13° |
| 2026-05-09 13:07 | 42.09987 | 1.31194 | 28275 ft | 518 kts | 13° |
| 2026-05-09 13:07 | 42.13481 | 1.32350 | 28730 ft | 517 kts | 13° |
| 2026-05-09 13:07 | 42.16980 | 1.33504 | 29148 ft | 517 kts | 13° |
| 2026-05-09 13:08 | 42.20476 | 1.34648 | 29574 ft | 517 kts | 13° |
| 2026-05-09 13:08 | 42.23967 | 1.35792 | 30017 ft | 517 kts | 13° |
| 2026-05-09 13:08 | 42.27463 | 1.36942 | 30379 ft | 516 kts | 13° |
| 2026-05-09 13:08 | 42.30951 | 1.38082 | 30698 ft | 516 kts | 13° |
| 2026-05-09 13:09 | 42.34439 | 1.39241 | 31019 ft | 516 kts | 14° |
| 2026-05-09 13:09 | 42.37925 | 1.40404 | 31335 ft | 517 kts | 14° |
| 2026-05-09 13:09 | 42.41416 | 1.41569 | 31682 ft | 516 kts | 13° |
| 2026-05-09 13:09 | 42.44907 | 1.42730 | 31973 ft | 516 kts | 13° |
| 2026-05-09 13:10 | 42.48388 | 1.43886 | 32357 ft | 515 kts | 14° |
| 2026-05-09 13:10 | 42.51862 | 1.45061 | 32648 ft | 515 kts | 14° |
| 2026-05-09 13:10 | 42.55332 | 1.46247 | 32994 ft | 513 kts | 14° |
| 2026-05-09 13:10 | 42.58795 | 1.47388 | 33343 ft | 513 kts | 10° |
| 2026-05-09 13:11 | 42.62338 | 1.48009 | 33595 ft | 513 kts | 1° |
| 2026-05-09 13:11 | 42.65891 | 1.47925 | 33906 ft | 510 kts | 351° |
| 2026-05-09 13:11 | 42.69417 | 1.47354 | 34218 ft | 508 kts | 350° |
| 2026-05-09 13:11 | 42.72916 | 1.46730 | 34550 ft | 506 kts | 349° |
| 2026-05-09 13:12 | 42.76390 | 1.46100 | 34906 ft | 503 kts | 349° |
| 2026-05-09 13:12 | 42.79851 | 1.45484 | 35175 ft | 501 kts | 349° |
| 2026-05-09 13:12 | 42.83323 | 1.44888 | 35483 ft | 501 kts | 349° |
| 2026-05-09 13:12 | 42.86776 | 1.44313 | 35731 ft | 500 kts | 350° |
| 2026-05-09 13:13 | 42.90226 | 1.43750 | 35939 ft | 501 kts | 350° |
| 2026-05-09 13:13 | 42.97198 | 1.42621 | 35905 ft | 505 kts | 350° |
| 2026-05-09 13:14 | 43.04138 | 1.41502 | 35906 ft | 499 kts | 349° |
| 2026-05-09 13:16 | 43.31640 | 1.37007 | 35906 ft | 498 kts | 349° |
| 2026-05-09 13:16 | 43.38533 | 1.35874 | 35907 ft | 499 kts | 349° |
| 2026-05-09 13:17 | 43.45438 | 1.34737 | 35915 ft | 500 kts | 349° |
| 2026-05-09 13:17 | 43.52349 | 1.33598 | 35916 ft | 501 kts | 349° |
| 2026-05-09 13:18 | 43.59281 | 1.32454 | 35917 ft | 501 kts | 349° |
| 2026-05-09 13:18 | 43.66215 | 1.31306 | 35945 ft | 502 kts | 349° |
| 2026-05-09 13:19 | 43.73102 | 1.29887 | 35939 ft | 501 kts | 345° |
| 2026-05-09 13:19 | 43.79933 | 1.28057 | 35933 ft | 500 kts | 344° |
| 2026-05-09 13:20 | 43.86742 | 1.26199 | 35935 ft | 501 kts | 345° |
| 2026-05-09 13:20 | 43.93596 | 1.24386 | 35927 ft | 501 kts | 345° |
| 2026-05-09 13:21 | 44.00450 | 1.22605 | 35924 ft | 501 kts | 345° |
| 2026-05-09 13:21 | 44.07358 | 1.20813 | 35925 ft | 501 kts | 345° |
| 2026-05-09 13:22 | 44.14215 | 1.19028 | 35924 ft | 501 kts | 345° |
| 2026-05-09 13:22 | 44.21078 | 1.17234 | 35928 ft | 502 kts | 345° |
| 2026-05-09 13:23 | 44.38242 | 1.12727 | 35932 ft | 502 kts | 345° |
| 2026-05-09 13:24 | 44.45110 | 1.10918 | 35939 ft | 502 kts | 345° |
| 2026-05-09 13:24 | 44.52031 | 1.09089 | 35925 ft | 502 kts | 344° |
| 2026-05-09 13:25 | 44.58899 | 1.07270 | 35931 ft | 502 kts | 344° |
| 2026-05-09 13:26 | 44.69190 | 1.04536 | 35917 ft | 501 kts | 344° |
| 2026-05-09 13:26 | 44.74877 | 1.03021 | 35912 ft | 500 kts | 344° |
| 2026-05-09 13:27 | 44.81749 | 1.01186 | 35926 ft | 500 kts | 344° |
| 2026-05-09 13:27 | 44.88603 | 0.99351 | 35920 ft | 500 kts | 344° |
| 2026-05-09 13:28 | 44.95447 | 0.97514 | 35922 ft | 500 kts | 344° |
| 2026-05-09 13:28 | 45.02237 | 0.95688 | 35925 ft | 500 kts | 344° |
| 2026-05-09 13:29 | 45.09113 | 0.93834 | 35919 ft | 500 kts | 344° |
| 2026-05-09 13:29 | 45.15994 | 0.91974 | 35911 ft | 500 kts | 344° |
| 2026-05-09 13:30 | 45.22836 | 0.90122 | 35919 ft | 500 kts | 343° |
| 2026-05-09 13:30 | 45.29722 | 0.88251 | 35911 ft | 500 kts | 343° |
| 2026-05-09 13:31 | 45.36517 | 0.86400 | 35919 ft | 500 kts | 343° |
| 2026-05-09 13:31 | 45.43358 | 0.84533 | 35923 ft | 500 kts | 343° |
| 2026-05-09 13:32 | 45.50203 | 0.82661 | 35921 ft | 500 kts | 343° |
| 2026-05-09 13:32 | 45.60447 | 0.79849 | 35938 ft | 500 kts | 343° |
| 2026-05-09 13:33 | 45.67277 | 0.77969 | 35953 ft | 500 kts | 343° |
| 2026-05-09 13:33 | 45.74110 | 0.76083 | 35934 ft | 500 kts | 343° |
| 2026-05-09 13:34 | 45.80996 | 0.74177 | 35941 ft | 500 kts | 343° |
| 2026-05-09 13:34 | 45.87827 | 0.72282 | 35941 ft | 500 kts | 343° |
| 2026-05-09 13:35 | 45.94662 | 0.70382 | 35933 ft | 500 kts | 343° |
| 2026-05-09 13:35 | 46.01489 | 0.68479 | 35944 ft | 499 kts | 343° |
| 2026-05-09 13:36 | 46.08314 | 0.66572 | 35928 ft | 499 kts | 343° |
| 2026-05-09 13:36 | 46.15130 | 0.64663 | 35937 ft | 498 kts | 343° |
| 2026-05-09 13:37 | 46.21933 | 0.62753 | 35934 ft | 498 kts | 343° |
| 2026-05-09 13:37 | 46.28731 | 0.60840 | 35929 ft | 497 kts | 343° |
| 2026-05-09 13:38 | 46.35535 | 0.58921 | 35934 ft | 497 kts | 343° |
| 2026-05-09 13:38 | 46.42318 | 0.57005 | 35942 ft | 496 kts | 344° |
| 2026-05-09 13:39 | 46.49095 | 0.55086 | 35936 ft | 496 kts | 343° |
| 2026-05-09 13:39 | 46.55952 | 0.53735 | 35938 ft | 502 kts | 356° |
| 2026-05-09 13:40 | 46.62905 | 0.55056 | 35954 ft | 507 kts | 10° |
| 2026-05-09 13:40 | 46.69762 | 0.57459 | 35935 ft | 507 kts | 11° |
| 2026-05-09 13:41 | 46.76615 | 0.59835 | 35933 ft | 506 kts | 10° |
| 2026-05-09 13:41 | 46.83479 | 0.62126 | 35934 ft | 505 kts | 10° |
| 2026-05-09 13:42 | 46.90338 | 0.64396 | 35937 ft | 505 kts | 10° |
| 2026-05-09 13:42 | 46.97196 | 0.66683 | 35942 ft | 505 kts | 10° |
| 2026-05-09 13:43 | 47.04051 | 0.68961 | 35934 ft | 504 kts | 9° |
| 2026-05-09 13:43 | 47.10981 | 0.70108 | 35937 ft | 500 kts | 360° |
| 2026-05-09 13:44 | 47.17969 | 0.70653 | 35936 ft | 500 kts | 359° |
| 2026-05-09 13:44 | 47.24899 | 0.71278 | 35938 ft | 499 kts | 0° |
| 2026-05-09 13:45 | 47.31820 | 0.72001 | 35937 ft | 498 kts | 0° |
| 2026-05-09 13:45 | 47.38736 | 0.72743 | 35949 ft | 498 kts | 0° |
| 2026-05-09 13:46 | 47.45602 | 0.73471 | 35930 ft | 497 kts | 0° |
| 2026-05-09 13:46 | 47.52443 | 0.75036 | 35940 ft | 502 kts | 14° |
| 2026-05-09 13:47 | 47.59101 | 0.78381 | 35949 ft | 502 kts | 17° |
| 2026-05-09 13:47 | 47.65709 | 0.81775 | 35943 ft | 502 kts | 16° |
| 2026-05-09 13:48 | 47.72320 | 0.85064 | 35942 ft | 501 kts | 15° |
| 2026-05-09 13:48 | 47.78933 | 0.88327 | 35952 ft | 500 kts | 15° |
| 2026-05-09 13:49 | 47.85534 | 0.91603 | 35958 ft | 500 kts | 15° |
| 2026-05-09 13:49 | 47.92124 | 0.94921 | 35965 ft | 500 kts | 15° |
| 2026-05-09 13:50 | 47.98763 | 0.98290 | 35968 ft | 500 kts | 15° |
| 2026-05-09 13:50 | 48.05347 | 1.01639 | 35961 ft | 500 kts | 15° |
| 2026-05-09 13:51 | 48.11921 | 1.04990 | 35969 ft | 500 kts | 15° |
| 2026-05-09 13:51 | 48.18507 | 1.08358 | 35970 ft | 500 kts | 15° |
| 2026-05-09 13:52 | 48.25141 | 1.11747 | 35978 ft | 500 kts | 15° |
| 2026-05-09 13:52 | 48.30678 | 1.14560 | 35983 ft | 501 kts | 15° |
| 2026-05-09 13:53 | 48.37294 | 1.17933 | 35978 ft | 502 kts | 15° |
| 2026-05-09 13:53 | 48.43907 | 1.21325 | 35982 ft | 503 kts | 15° |
| 2026-05-09 13:54 | 48.50579 | 1.24760 | 35981 ft | 503 kts | 15° |
| 2026-05-09 13:54 | 48.57264 | 1.28196 | 35980 ft | 504 kts | 15° |
| 2026-05-09 13:55 | 48.63914 | 1.31538 | 35979 ft | 503 kts | 15° |
| 2026-05-09 13:55 | 48.70564 | 1.34877 | 35982 ft | 503 kts | 15° |
| 2026-05-09 13:56 | 48.77233 | 1.38253 | 35989 ft | 503 kts | 15° |
| 2026-05-09 13:56 | 48.83883 | 1.41638 | 35988 ft | 503 kts | 15° |
| 2026-05-09 13:57 | 48.90503 | 1.45015 | 35992 ft | 502 kts | 15° |
| 2026-05-09 13:57 | 48.96973 | 1.49420 | 35995 ft | 507 kts | 31° |
| 2026-05-09 13:58 | 49.02449 | 1.56643 | 36000 ft | 508 kts | 48° |
| 2026-05-09 13:58 | 49.06546 | 1.63794 | 35993 ft | 509 kts | 49° |
| 2026-05-09 13:59 | 49.12018 | 1.73387 | 35999 ft | 508 kts | 48° |
| 2026-05-09 13:59 | 49.16721 | 1.81512 | 35997 ft | 506 kts | 48° |
| 2026-05-09 14:00 | 49.19878 | 1.86949 | 36000 ft | 505 kts | 48° |
| 2026-05-09 14:00 | 49.25484 | 1.96645 | 35999 ft | 504 kts | 48° |
| 2026-05-09 14:01 | 49.29866 | 2.04263 | 36017 ft | 503 kts | 48° |
| 2026-05-09 14:01 | 49.34524 | 2.12376 | 35992 ft | 503 kts | 48° |
| 2026-05-09 14:02 | 49.39143 | 2.20441 | 35989 ft | 502 kts | 48° |
| 2026-05-09 14:02 | 49.43771 | 2.28550 | 35994 ft | 501 kts | 48° |
| 2026-05-09 14:03 | 49.48372 | 2.36648 | 35989 ft | 500 kts | 48° |
| 2026-05-09 14:03 | 49.52990 | 2.44834 | 36012 ft | 497 kts | 49° |
| 2026-05-09 14:04 | 49.58136 | 2.51875 | 36014 ft | 494 kts | 32° |
| 2026-05-09 14:04 | 49.63971 | 2.57444 | 36023 ft | 493 kts | 30° |
| 2026-05-09 14:05 | 49.69806 | 2.62967 | 36025 ft | 492 kts | 31° |
| 2026-05-09 14:05 | 49.75615 | 2.68577 | 36039 ft | 491 kts | 32° |
| 2026-05-09 14:06 | 49.81382 | 2.74214 | 36020 ft | 490 kts | 32° |
| 2026-05-09 14:06 | 49.87144 | 2.79867 | 36035 ft | 489 kts | 32° |
| 2026-05-09 14:07 | 49.92881 | 2.85509 | 36038 ft | 488 kts | 32° |
| 2026-05-09 14:07 | 49.98618 | 2.91163 | 36041 ft | 488 kts | 32° |
| 2026-05-09 14:08 | 50.04351 | 2.96830 | 36040 ft | 488 kts | 32° |
| 2026-05-09 14:08 | 50.10082 | 3.02514 | 36037 ft | 488 kts | 32° |
| 2026-05-09 14:09 | 50.15805 | 3.08209 | 36063 ft | 488 kts | 33° |
| 2026-05-09 14:09 | 50.21510 | 3.13939 | 36056 ft | 488 kts | 34° |
| 2026-05-09 14:10 | 50.27526 | 3.18789 | 36059 ft | 488 kts | 20° |
| 2026-05-09 14:10 | 50.30703 | 3.20722 | 36049 ft | 489 kts | 22° |
| 2026-05-09 14:11 | 50.36901 | 3.25063 | 36048 ft | 488 kts | 26° |
| 2026-05-09 14:11 | 50.43098 | 3.29439 | 36048 ft | 489 kts | 27° |
| 2026-05-09 14:12 | 50.49156 | 3.34322 | 36053 ft | 489 kts | 28° |
| 2026-05-09 14:12 | 50.52208 | 3.36739 | 35770 ft | 494 kts | 26° |
| 2026-05-09 14:12 | 50.55334 | 3.38999 | 35147 ft | 493 kts | 25° |
| 2026-05-09 14:12 | 50.58481 | 3.41133 | 34458 ft | 493 kts | 24° |
| 2026-05-09 14:13 | 50.61649 | 3.43242 | 33689 ft | 494 kts | 24° |
| 2026-05-09 14:14 | 50.83884 | 3.58518 | 27569 ft | 499 kts | 25° |
| 2026-05-09 14:15 | 50.87064 | 3.60732 | 26538 ft | 499 kts | 24° |
| 2026-05-09 14:15 | 50.90319 | 3.62687 | 25575 ft | 500 kts | 16° |
| 2026-05-09 14:15 | 50.93734 | 3.63904 | 24847 ft | 494 kts | 7° |
| 2026-05-09 14:15 | 50.97155 | 3.64302 | 24099 ft | 488 kts | 0° |
| 2026-05-09 14:16 | 51.00541 | 3.64438 | 23289 ft | 484 kts | 0° |
| 2026-05-09 14:16 | 51.03883 | 3.64565 | 22467 ft | 479 kts | 0° |
| 2026-05-09 14:16 | 51.07193 | 3.64724 | 21717 ft | 472 kts | 0° |
| 2026-05-09 14:16 | 51.10496 | 3.64920 | 20980 ft | 466 kts | 0° |
| 2026-05-09 14:17 | 51.13715 | 3.65133 | 20260 ft | 460 kts | 0° |
| 2026-05-09 14:17 | 51.16898 | 3.65348 | 19560 ft | 454 kts | 0° |
| 2026-05-09 14:17 | 51.20036 | 3.65554 | 18869 ft | 449 kts | 0° |
| 2026-05-09 14:17 | 51.23125 | 3.66166 | 18116 ft | 448 kts | 15° |
| 2026-05-09 14:18 | 51.25916 | 3.68230 | 17778 ft | 438 kts | 31° |
| 2026-05-09 14:18 | 51.28385 | 3.70980 | 17465 ft | 431 kts | 35° |
| 2026-05-09 14:18 | 51.30812 | 3.73874 | 17142 ft | 439 kts | 36° |
| 2026-05-09 14:18 | 51.33262 | 3.76811 | 16827 ft | 441 kts | 36° |
| 2026-05-09 14:19 | 51.35738 | 3.79686 | 16499 ft | 437 kts | 34° |
| 2026-05-09 14:19 | 51.38198 | 3.82503 | 16190 ft | 433 kts | 34° |
| 2026-05-09 14:19 | 51.40533 | 3.85610 | 15858 ft | 432 kts | 49° |
| 2026-05-09 14:19 | 51.42110 | 3.89666 | 15586 ft | 428 kts | 66° |
| 2026-05-09 14:20 | 51.43010 | 3.94190 | 15287 ft | 425 kts | 77° |
| 2026-05-09 14:20 | 51.43693 | 3.98781 | 14989 ft | 423 kts | 77° |
| 2026-05-09 14:20 | 51.44347 | 4.03386 | 14677 ft | 422 kts | 78° |
| 2026-05-09 14:21 | 51.45453 | 4.11112 | 14176 ft | 420 kts | 77° |
| 2026-05-09 14:21 | 51.46110 | 4.15605 | 13887 ft | 418 kts | 77° |
| 2026-05-09 14:21 | 51.46780 | 4.20136 | 13557 ft | 416 kts | 77° |
| 2026-05-09 14:21 | 51.47457 | 4.24695 | 13239 ft | 413 kts | 77° |
| 2026-05-09 14:22 | 51.48112 | 4.29107 | 12930 ft | 410 kts | 77° |
| 2026-05-09 14:22 | 51.48778 | 4.33599 | 12646 ft | 407 kts | 77° |
| 2026-05-09 14:22 | 51.49427 | 4.38005 | 12359 ft | 404 kts | 77° |
| 2026-05-09 14:22 | 51.50069 | 4.42368 | 12074 ft | 400 kts | 77° |
| 2026-05-09 14:23 | 51.50697 | 4.46644 | 11787 ft | 388 kts | 77° |
| 2026-05-09 14:23 | 51.51306 | 4.50786 | 11514 ft | 375 kts | 77° |
| 2026-05-09 14:23 | 51.52064 | 4.54743 | 11232 ft | 363 kts | 63° |
| 2026-05-09 14:23 | 51.53467 | 4.58067 | 11010 ft | 351 kts | 53° |
| 2026-05-09 14:24 | 51.54907 | 4.61174 | 10757 ft | 342 kts | 53° |
| 2026-05-09 14:24 | 51.56311 | 4.64250 | 10517 ft | 333 kts | 53° |
| 2026-05-09 14:24 | 51.57670 | 4.67266 | 10276 ft | 322 kts | 54° |
| 2026-05-09 14:24 | 51.58964 | 4.70161 | 10041 ft | 306 kts | 54° |
| 2026-05-09 14:25 | 51.60157 | 4.72845 | 10038 ft | 285 kts | 54° |
| 2026-05-09 14:25 | 51.61299 | 4.75420 | 9710 ft | 284 kts | 54° |
| 2026-05-09 14:25 | 51.62438 | 4.77993 | 9465 ft | 280 kts | 54° |
| 2026-05-09 14:25 | 51.63556 | 4.80518 | 9251 ft | 274 kts | 54° |
| 2026-05-09 14:26 | 51.64655 | 4.83004 | 9074 ft | 269 kts | 54° |
| 2026-05-09 14:26 | 51.65754 | 4.85491 | 8846 ft | 270 kts | 54° |
| 2026-05-09 14:26 | 51.66847 | 4.87964 | 8645 ft | 271 kts | 54° |
| 2026-05-09 14:26 | 51.67915 | 4.90455 | 8449 ft | 270 kts | 60° |
| 2026-05-09 14:27 | 51.68397 | 4.93338 | 8232 ft | 269 kts | 92° |
| 2026-05-09 14:27 | 51.68013 | 4.96256 | 8076 ft | 266 kts | 111° |
| 2026-05-09 14:27 | 51.67268 | 4.98989 | 7891 ft | 267 kts | 115° |
| 2026-05-09 14:27 | 51.66444 | 5.01765 | 7694 ft | 268 kts | 116° |
| 2026-05-09 14:28 | 51.65658 | 5.04448 | 7492 ft | 268 kts | 115° |
| 2026-05-09 14:28 | 51.64873 | 5.07172 | 7307 ft | 268 kts | 115° |
| 2026-05-09 14:28 | 51.64080 | 5.09928 | 7117 ft | 267 kts | 116° |
| 2026-05-09 14:28 | 51.63073 | 5.12407 | 6901 ft | 265 kts | 134° |
| 2026-05-09 14:29 | 51.61784 | 5.14501 | 6726 ft | 263 kts | 135° |
| 2026-05-09 14:29 | 51.60515 | 5.16565 | 6544 ft | 263 kts | 135° |
| 2026-05-09 14:29 | 51.59221 | 5.18691 | 6340 ft | 262 kts | 135° |
| 2026-05-09 14:29 | 51.57947 | 5.20787 | 6130 ft | 261 kts | 134° |
| 2026-05-09 14:30 | 51.56696 | 5.22883 | 5949 ft | 259 kts | 134° |
| 2026-05-09 14:30 | 51.55454 | 5.24970 | 5759 ft | 258 kts | 134° |
| 2026-05-09 14:30 | 51.54215 | 5.27050 | 5581 ft | 257 kts | 134° |
| 2026-05-09 14:30 | 51.52980 | 5.29123 | 5407 ft | 256 kts | 133° |
| 2026-05-09 14:31 | 51.51751 | 5.31186 | 5230 ft | 256 kts | 134° |
| 2026-05-09 14:31 | 51.50335 | 5.32870 | 5030 ft | 256 kts | 159° |
| 2026-05-09 14:31 | 51.48581 | 5.33158 | 4864 ft | 256 kts | 189° |
| 2026-05-09 14:31 | 51.46967 | 5.32020 | 4681 ft | 256 kts | 219° |
| 2026-05-09 14:32 | 51.45893 | 5.29754 | 4490 ft | 249 kts | 246° |
| 2026-05-09 14:32 | 51.45455 | 5.27147 | 4326 ft | 236 kts | 259° |
| 2026-05-09 14:32 | 51.45197 | 5.24632 | 4152 ft | 228 kts | 261° |
| 2026-05-09 14:32 | 51.44948 | 5.22128 | 3995 ft | 228 kts | 256° |
| 2026-05-09 14:33 | 51.44118 | 5.20028 | 3822 ft | 226 kts | 216° |
| 2026-05-09 14:33 | 51.42810 | 5.18610 | 3675 ft | 225 kts | 212° |
| 2026-05-09 14:33 | 51.41492 | 5.17230 | 3474 ft | 227 kts | 213° |
| 2026-05-09 14:33 | 51.40220 | 5.15776 | 3289 ft | 219 kts | 211° |
| 2026-05-09 14:34 | 51.38834 | 5.15071 | 3121 ft | 206 kts | 177° |
| 2026-05-09 14:34 | 51.37503 | 5.15617 | 2989 ft | 194 kts | 150° |
| 2026-05-09 14:34 | 51.36501 | 5.16979 | 2848 ft | 190 kts | 126° |
| 2026-05-09 14:34 | 51.35723 | 5.18691 | 2724 ft | 191 kts | 124° |
| 2026-05-09 14:35 | 51.34950 | 5.20378 | 2553 ft | 183 kts | 124° |
| 2026-05-09 14:35 | 51.34228 | 5.21948 | 2448 ft | 169 kts | 123° |
| 2026-05-09 14:35 | 51.33817 | 5.23655 | 2305 ft | 167 kts | 83° |
| 2026-05-09 14:35 | 51.34386 | 5.25171 | 2217 ft | 165 kts | 38° |
| 2026-05-09 14:36 | 51.35281 | 5.26364 | 2113 ft | 169 kts | 41° |
| 2026-05-09 14:36 | 51.36225 | 5.27551 | 1987 ft | 170 kts | 37° |
| 2026-05-09 14:36 | 51.37181 | 5.28649 | 1758 ft | 167 kts | 35° |
| 2026-05-09 14:36 | 51.38125 | 5.29732 | 1532 ft | 165 kts | 34° |
| 2026-05-09 14:37 | 51.39054 | 5.30705 | 1356 ft | 150 kts | 34° |
| 2026-05-09 14:37 | 51.39870 | 5.31695 | 1128 ft | 145 kts | 36° |
| 2026-05-09 14:37 | 51.40725 | 5.32589 | 908 ft | 148 kts | 36° |
| 2026-05-09 14:37 | 51.41551 | 5.33566 | 738 ft | 147 kts | 33° |
| 2026-05-09 14:38 | 51.42134 | 5.34201 | 571 ft | 150 kts | 35° |
| 2026-05-09 14:38 | 51.43003 | 5.35193 | 382 ft | 148 kts | 34° |
| 2026-05-09 14:38 | 51.43927 | 5.36234 | 158 ft | 146 kts | 34° |
| 2026-05-09 14:38 | 51.44775 | 5.37183 | 73 ft | 120 kts | 35° |
| 2026-05-09 14:39 | 51.45297 | 5.37772 | 70 ft | 56 kts | 35° |
| 2026-05-09 14:39 | 51.45559 | 5.38062 | 74 ft | 44 kts | 34° |
| 2026-05-09 14:39 | 51.45735 | 5.38259 | 71 ft | 42 kts | 35° |
| 2026-05-09 14:39 | 51.45906 | 5.38463 | 76 ft | 16 kts | 63° |
| 2026-05-09 14:40 | 51.45865 | 5.38611 | 73 ft | 10 kts | 125° |
| 2026-05-09 14:40 | 51.45828 | 5.38696 | 65 ft | 8 kts | 125° |
| 2026-05-09 14:40 | 51.45799 | 5.38763 | 70 ft | 6 kts | 125° |
| 2026-05-09 14:40 | 51.45791 | 5.38817 | 72 ft | 5 kts | 71° |
| 2026-05-09 14:41 | 51.45815 | 5.38860 | 74 ft | 5 kts | 34° |
| 2026-05-09 14:41 | 51.45845 | 5.38893 | 69 ft | 5 kts | 35° |
| 2026-05-09 14:41 | 51.45874 | 5.38925 | 68 ft | 5 kts | 35° |
| 2026-05-09 14:41 | 51.45887 | 5.38967 | 72 ft | 3 kts | 95° |
| 2026-05-09 14:42 | 51.45880 | 5.38998 | 70 ft | 2 kts | 116° |
| 2026-05-09 14:42 | 51.45873 | 5.39015 | 71 ft | 2 kts | 124° |
| 2026-05-09 14:42 | 51.45866 | 5.39032 | 72 ft | 2 kts | 124° |
| 2026-05-09 14:42 | 51.45859 | 5.39048 | 66 ft | 2 kts | 124° |
| 2026-05-09 14:43 | 51.45856 | 5.39055 | 66 ft | 0 kts | 124° |